sensor_id;sensor_type;location;lat;lon;timestamp;temperature;humidity
35381;DHT22;21486;51.916;8.378;2023-02-01T00:01:18;4.80;92.10
35381;DHT22;21486;51.916;8.378;2023-02-01T00:03:43;4.80;92.10
35381;DHT22;21486;51.916;8.378;2023-02-01T00:06:09;4.70;92.20
35381;DHT22;21486;51.916;8.378;2023-02-01T00:08:34;4.70;92.40
35381;DHT22;21486;51.916;8.378;2023-02-01T00:11:00;4.70;92.50
35381;DHT22;21486;51.916;8.378;2023-02-01T00:13:30;4.80;92.20
35381;DHT22;21486;51.916;8.378;2023-02-01T00:16:02;4.70;92.40
35381;DHT22;21486;51.916;8.378;2023-02-01T00:18:27;4.70;92.20
35381;DHT22;21486;51.916;8.378;2023-02-01T00:20:53;4.70;92.20
35381;DHT22;21486;51.916;8.378;2023-02-01T00:23:18;4.70;92.30
35381;DHT22;21486;51.916;8.378;2023-02-01T00:25:43;4.60;92.60
35381;DHT22;21486;51.916;8.378;2023-02-01T00:28:09;4.60;92.60
35381;DHT22;21486;51.916;8.378;2023-02-01T00:30:34;4.50;92.60
35381;DHT22;21486;51.916;8.378;2023-02-01T00:33:00;4.50;92.80
35381;DHT22;21486;51.916;8.378;2023-02-01T00:35:25;4.60;92.70
35381;DHT22;21486;51.916;8.378;2023-02-01T00:37:51;4.60;92.50
35381;DHT22;21486;51.916;8.378;2023-02-01T00:40:16;4.70;92.70
35381;DHT22;21486;51.916;8.378;2023-02-01T00:42:42;4.70;92.70
35381;DHT22;21486;51.916;8.378;2023-02-01T00:45:07;4.60;92.80
35381;DHT22;21486;51.916;8.378;2023-02-01T00:47:33;4.70;92.70
35381;DHT22;21486;51.916;8.378;2023-02-01T00:49:58;4.70;92.80
35381;DHT22;21486;51.916;8.378;2023-02-01T00:52:24;4.70;92.70
35381;DHT22;21486;51.916;8.378;2023-02-01T00:54:49;4.70;92.70
35381;DHT22;21486;51.916;8.378;2023-02-01T00:57:15;4.70;92.90
35381;DHT22;21486;51.916;8.378;2023-02-01T00:59:40;4.70;92.90
35381;DHT22;21486;51.916;8.378;2023-02-01T01:02:05;4.60;93.10
35381;DHT22;21486;51.916;8.378;2023-02-01T01:04:31;4.60;93.30
35381;DHT22;21486;51.916;8.378;2023-02-01T01:06:56;4.70;93.40
35381;DHT22;21486;51.916;8.378;2023-02-01T01:09:22;4.70;93.30
35381;DHT22;21486;51.916;8.378;2023-02-01T01:11:47;4.70;93.30
35381;DHT22;21486;51.916;8.378;2023-02-01T01:14:13;4.70;93.20
35381;DHT22;21486;51.916;8.378;2023-02-01T01:16:38;4.80;93.20
35381;DHT22;21486;51.916;8.378;2023-02-01T01:19:04;4.80;93.30
35381;DHT22;21486;51.916;8.378;2023-02-01T01:21:30;4.80;93.10
35381;DHT22;21486;51.916;8.378;2023-02-01T01:23:55;4.80;93.10
35381;DHT22;21486;51.916;8.378;2023-02-01T01:26:22;4.80;93.00
35381;DHT22;21486;51.916;8.378;2023-02-01T01:28:48;4.90;93.10
35381;DHT22;21486;51.916;8.378;2023-02-01T01:33:04;5.00;92.50
35381;DHT22;21486;51.916;8.378;2023-02-01T01:35:30;5.00;92.60
35381;DHT22;21486;51.916;8.378;2023-02-01T01:37:56;5.00;92.70
35381;DHT22;21486;51.916;8.378;2023-02-01T01:40:22;5.00;92.40
35381;DHT22;21486;51.916;8.378;2023-02-01T01:42:47;5.10;92.30
35381;DHT22;21486;51.916;8.378;2023-02-01T01:45:25;5.10;92.30
35381;DHT22;21486;51.916;8.378;2023-02-01T01:48:04;5.10;92.50
35381;DHT22;21486;51.916;8.378;2023-02-01T01:50:43;5.10;92.30
35381;DHT22;21486;51.916;8.378;2023-02-01T01:53:12;5.10;92.30
35381;DHT22;21486;51.916;8.378;2023-02-01T01:55:40;5.10;92.40
35381;DHT22;21486;51.916;8.378;2023-02-01T01:58:13;5.20;92.30
35381;DHT22;21486;51.916;8.378;2023-02-01T02:00:41;5.10;92.50
35381;DHT22;21486;51.916;8.378;2023-02-01T02:03:15;5.10;92.60
35381;DHT22;21486;51.916;8.378;2023-02-01T02:05:43;5.10;92.80
35381;DHT22;21486;51.916;8.378;2023-02-01T02:08:10;5.10;92.80
35381;DHT22;21486;51.916;8.378;2023-02-01T02:10:36;5.10;93.10
35381;DHT22;21486;51.916;8.378;2023-02-01T02:13:21;5.10;93.10
35381;DHT22;21486;51.916;8.378;2023-02-01T02:21:32;5.10;92.60
35381;DHT22;21486;51.916;8.378;2023-02-01T02:27:07;5.20;92.00
35381;DHT22;21486;51.916;8.378;2023-02-01T02:39:06;5.30;91.50
35381;DHT22;21486;51.916;8.378;2023-02-01T02:42:12;5.30;91.20
35381;DHT22;21486;51.916;8.378;2023-02-01T02:48:11;5.30;90.70
35381;DHT22;21486;51.916;8.378;2023-02-01T02:50:46;5.30;90.70
35381;DHT22;21486;51.916;8.378;2023-02-01T02:53:38;5.30;90.40
35381;DHT22;21486;51.916;8.378;2023-02-01T02:56:25;5.40;90.20
35381;DHT22;21486;51.916;8.378;2023-02-01T02:59:14;5.30;90.10
35381;DHT22;21486;51.916;8.378;2023-02-01T03:02:00;5.30;89.80
35381;DHT22;21486;51.916;8.378;2023-02-01T03:04:44;5.30;89.80
35381;DHT22;21486;51.916;8.378;2023-02-01T03:07:15;5.40;89.60
35381;DHT22;21486;51.916;8.378;2023-02-01T03:10:05;5.40;89.70
35381;DHT22;21486;51.916;8.378;2023-02-01T03:12:37;5.40;89.00
35381;DHT22;21486;51.916;8.378;2023-02-01T03:15:45;5.40;89.10
35381;DHT22;21486;51.916;8.378;2023-02-01T03:18:20;5.50;87.70
35381;DHT22;21486;51.916;8.378;2023-02-01T03:20:50;5.50;88.10
35381;DHT22;21486;51.916;8.378;2023-02-01T03:23:20;5.50;88.20
35381;DHT22;21486;51.916;8.378;2023-02-01T03:25:48;5.40;88.80
35381;DHT22;21486;51.916;8.378;2023-02-01T03:28:17;5.40;88.80
35381;DHT22;21486;51.916;8.378;2023-02-01T03:30:46;5.40;88.30
35381;DHT22;21486;51.916;8.378;2023-02-01T03:33:17;5.40;88.20
35381;DHT22;21486;51.916;8.378;2023-02-01T03:38:25;5.50;88.00
35381;DHT22;21486;51.916;8.378;2023-02-01T03:41:02;5.50;88.10
35381;DHT22;21486;51.916;8.378;2023-02-01T03:43:33;5.50;88.00
35381;DHT22;21486;51.916;8.378;2023-02-01T03:46:06;5.50;88.90
35381;DHT22;21486;51.916;8.378;2023-02-01T03:48:35;5.40;88.80
35381;DHT22;21486;51.916;8.378;2023-02-01T03:51:04;5.50;88.50
35381;DHT22;21486;51.916;8.378;2023-02-01T03:53:31;5.50;88.30
35381;DHT22;21486;51.916;8.378;2023-02-01T03:56:04;5.60;88.30
35381;DHT22;21486;51.916;8.378;2023-02-01T03:58:31;5.50;88.40
35381;DHT22;21486;51.916;8.378;2023-02-01T04:00:58;5.50;88.00
35381;DHT22;21486;51.916;8.378;2023-02-01T04:03:25;5.50;88.90
35381;DHT22;21486;51.916;8.378;2023-02-01T04:05:51;5.50;88.40
35381;DHT22;21486;51.916;8.378;2023-02-01T04:08:19;5.50;88.30
35381;DHT22;21486;51.916;8.378;2023-02-01T04:10:45;5.50;87.80
35381;DHT22;21486;51.916;8.378;2023-02-01T04:13:11;5.50;88.00
35381;DHT22;21486;51.916;8.378;2023-02-01T04:15:37;5.50;88.10
35381;DHT22;21486;51.916;8.378;2023-02-01T04:18:03;5.60;87.70
35381;DHT22;21486;51.916;8.378;2023-02-01T04:20:28;5.60;87.70
35381;DHT22;21486;51.916;8.378;2023-02-01T04:22:54;5.60;88.00
35381;DHT22;21486;51.916;8.378;2023-02-01T04:25:20;5.70;87.70
35381;DHT22;21486;51.916;8.378;2023-02-01T04:27:46;5.70;87.50
35381;DHT22;21486;51.916;8.378;2023-02-01T04:30:12;5.60;87.70
35381;DHT22;21486;51.916;8.378;2023-02-01T04:32:39;5.70;87.30
35381;DHT22;21486;51.916;8.378;2023-02-01T04:35:06;5.70;86.90
35381;DHT22;21486;51.916;8.378;2023-02-01T04:37:32;5.70;86.70
35381;DHT22;21486;51.916;8.378;2023-02-01T04:39:58;5.70;86.90
35381;DHT22;21486;51.916;8.378;2023-02-01T04:42:23;5.70;87.00
35381;DHT22;21486;51.916;8.378;2023-02-01T04:44:49;5.70;87.40
35381;DHT22;21486;51.916;8.378;2023-02-01T04:47:15;5.70;87.50
35381;DHT22;21486;51.916;8.378;2023-02-01T04:49:41;5.70;87.20
35381;DHT22;21486;51.916;8.378;2023-02-01T04:52:08;5.70;87.30
35381;DHT22;21486;51.916;8.378;2023-02-01T04:54:33;5.70;87.90
35381;DHT22;21486;51.916;8.378;2023-02-01T04:56:59;5.70;89.10
35381;DHT22;21486;51.916;8.378;2023-02-01T04:59:28;5.80;89.10
35381;DHT22;21486;51.916;8.378;2023-02-01T05:01:56;5.70;89.90
35381;DHT22;21486;51.916;8.378;2023-02-01T05:04:24;5.60;90.60
35381;DHT22;21486;51.916;8.378;2023-02-01T05:06:50;5.60;90.30
35381;DHT22;21486;51.916;8.378;2023-02-01T05:09:16;5.50;91.00
35381;DHT22;21486;51.916;8.378;2023-02-01T05:11:46;5.50;90.70
35381;DHT22;21486;51.916;8.378;2023-02-01T05:14:30;5.40;91.30
35381;DHT22;21486;51.916;8.378;2023-02-01T05:16:56;5.50;90.90
35381;DHT22;21486;51.916;8.378;2023-02-01T05:19:22;5.40;91.30
35381;DHT22;21486;51.916;8.378;2023-02-01T05:21:47;5.50;91.40
35381;DHT22;21486;51.916;8.378;2023-02-01T05:24:13;5.50;90.50
35381;DHT22;21486;51.916;8.378;2023-02-01T05:26:40;5.50;90.90
35381;DHT22;21486;51.916;8.378;2023-02-01T05:29:07;5.50;91.10
35381;DHT22;21486;51.916;8.378;2023-02-01T05:31:33;5.50;90.40
35381;DHT22;21486;51.916;8.378;2023-02-01T05:33:59;5.50;90.80
35381;DHT22;21486;51.916;8.378;2023-02-01T05:36:25;5.50;90.90
35381;DHT22;21486;51.916;8.378;2023-02-01T05:38:50;5.60;90.40
35381;DHT22;21486;51.916;8.378;2023-02-01T05:41:16;5.60;90.80
35381;DHT22;21486;51.916;8.378;2023-02-01T05:43:45;5.60;91.00
35381;DHT22;21486;51.916;8.378;2023-02-01T05:46:11;5.60;90.70
35381;DHT22;21486;51.916;8.378;2023-02-01T05:48:39;5.60;90.50
35381;DHT22;21486;51.916;8.378;2023-02-01T05:51:05;5.60;90.20
35381;DHT22;21486;51.916;8.378;2023-02-01T05:53:33;5.60;90.20
35381;DHT22;21486;51.916;8.378;2023-02-01T05:55:59;5.60;90.00
35381;DHT22;21486;51.916;8.378;2023-02-01T05:58:25;5.70;90.00
35381;DHT22;21486;51.916;8.378;2023-02-01T06:00:51;5.60;89.40
35381;DHT22;21486;51.916;8.378;2023-02-01T06:03:20;5.60;89.50
35381;DHT22;21486;51.916;8.378;2023-02-01T06:05:46;5.70;89.80
35381;DHT22;21486;51.916;8.378;2023-02-01T06:08:21;5.70;89.40
35381;DHT22;21486;51.916;8.378;2023-02-01T06:10:49;5.70;89.70
35381;DHT22;21486;51.916;8.378;2023-02-01T06:13:15;5.60;90.00
35381;DHT22;21486;51.916;8.378;2023-02-01T06:15:40;5.70;89.70
35381;DHT22;21486;51.916;8.378;2023-02-01T06:18:09;5.70;89.80
35381;DHT22;21486;51.916;8.378;2023-02-01T06:20:38;5.60;89.80
35381;DHT22;21486;51.916;8.378;2023-02-01T06:23:03;5.70;90.00
35381;DHT22;21486;51.916;8.378;2023-02-01T06:25:31;5.60;89.60
35381;DHT22;21486;51.916;8.378;2023-02-01T06:28:00;5.60;90.10
35381;DHT22;21486;51.916;8.378;2023-02-01T06:30:26;5.60;90.00
35381;DHT22;21486;51.916;8.378;2023-02-01T06:32:52;5.60;90.00
35381;DHT22;21486;51.916;8.378;2023-02-01T06:35:20;5.60;89.70
35381;DHT22;21486;51.916;8.378;2023-02-01T06:37:46;5.60;89.90
35381;DHT22;21486;51.916;8.378;2023-02-01T06:40:15;5.60;90.10
35381;DHT22;21486;51.916;8.378;2023-02-01T06:42:41;5.60;90.30
35381;DHT22;21486;51.916;8.378;2023-02-01T06:45:07;5.60;90.00
35381;DHT22;21486;51.916;8.378;2023-02-01T06:47:33;5.60;90.10
35381;DHT22;21486;51.916;8.378;2023-02-01T06:49:59;5.60;90.20
35381;DHT22;21486;51.916;8.378;2023-02-01T06:52:25;5.60;90.20
35381;DHT22;21486;51.916;8.378;2023-02-01T06:54:50;5.60;90.00
35381;DHT22;21486;51.916;8.378;2023-02-01T06:57:16;5.60;90.20
35381;DHT22;21486;51.916;8.378;2023-02-01T06:59:42;5.60;90.10
35381;DHT22;21486;51.916;8.378;2023-02-01T07:02:13;5.60;90.00
35381;DHT22;21486;51.916;8.378;2023-02-01T07:04:39;5.60;90.20
35381;DHT22;21486;51.916;8.378;2023-02-01T07:07:05;5.60;90.10
35381;DHT22;21486;51.916;8.378;2023-02-01T07:09:30;5.60;90.20
35381;DHT22;21486;51.916;8.378;2023-02-01T07:11:56;5.70;89.90
35381;DHT22;21486;51.916;8.378;2023-02-01T07:14:22;5.70;90.00
35381;DHT22;21486;51.916;8.378;2023-02-01T07:16:47;5.70;90.00
35381;DHT22;21486;51.916;8.378;2023-02-01T07:19:13;5.70;90.10
35381;DHT22;21486;51.916;8.378;2023-02-01T07:21:39;5.60;90.00
35381;DHT22;21486;51.916;8.378;2023-02-01T07:24:05;5.70;90.10
35381;DHT22;21486;51.916;8.378;2023-02-01T07:26:30;5.60;90.00
35381;DHT22;21486;51.916;8.378;2023-02-01T07:28:59;5.60;90.00
35381;DHT22;21486;51.916;8.378;2023-02-01T07:31:25;5.70;90.00
35381;DHT22;21486;51.916;8.378;2023-02-01T07:34:00;5.70;89.70
35381;DHT22;21486;51.916;8.378;2023-02-01T07:36:31;5.70;89.90
35381;DHT22;21486;51.916;8.378;2023-02-01T07:39:08;5.70;90.20
35381;DHT22;21486;51.916;8.378;2023-02-01T07:41:34;5.70;89.70
35381;DHT22;21486;51.916;8.378;2023-02-01T07:44:00;5.70;90.00
35381;DHT22;21486;51.916;8.378;2023-02-01T07:46:26;5.80;89.80
35381;DHT22;21486;51.916;8.378;2023-02-01T07:48:51;5.70;90.00
35381;DHT22;21486;51.916;8.378;2023-02-01T07:51:17;5.70;90.20
35381;DHT22;21486;51.916;8.378;2023-02-01T07:53:43;5.70;90.00
35381;DHT22;21486;51.916;8.378;2023-02-01T07:56:15;5.70;90.30
35381;DHT22;21486;51.916;8.378;2023-02-01T07:58:41;5.70;90.10
35381;DHT22;21486;51.916;8.378;2023-02-01T08:01:14;5.80;90.00
35381;DHT22;21486;51.916;8.378;2023-02-01T08:03:53;5.70;90.30
35381;DHT22;21486;51.916;8.378;2023-02-01T08:06:20;5.70;90.30
35381;DHT22;21486;51.916;8.378;2023-02-01T08:08:47;5.70;91.00
35381;DHT22;21486;51.916;8.378;2023-02-01T08:11:13;5.60;91.10
35381;DHT22;21486;51.916;8.378;2023-02-01T08:13:39;5.70;91.00
35381;DHT22;21486;51.916;8.378;2023-02-01T08:16:07;5.70;90.80
35381;DHT22;21486;51.916;8.378;2023-02-01T08:18:35;5.70;90.70
35381;DHT22;21486;51.916;8.378;2023-02-01T08:21:07;5.70;90.30
35381;DHT22;21486;51.916;8.378;2023-02-01T08:23:34;5.80;90.60
35381;DHT22;21486;51.916;8.378;2023-02-01T08:26:21;5.80;90.50
35381;DHT22;21486;51.916;8.378;2023-02-01T08:28:50;5.80;90.20
35381;DHT22;21486;51.916;8.378;2023-02-01T08:31:18;5.90;90.10
35381;DHT22;21486;51.916;8.378;2023-02-01T08:33:49;5.90;90.30
35381;DHT22;21486;51.916;8.378;2023-02-01T08:36:14;6.00;90.00
35381;DHT22;21486;51.916;8.378;2023-02-01T08:38:40;6.00;90.00
35381;DHT22;21486;51.916;8.378;2023-02-01T08:41:18;6.00;89.80
35381;DHT22;21486;51.916;8.378;2023-02-01T08:43:44;6.00;90.00
35381;DHT22;21486;51.916;8.378;2023-02-01T08:46:10;6.00;90.10
35381;DHT22;21486;51.916;8.378;2023-02-01T08:48:36;6.00;90.40
35381;DHT22;21486;51.916;8.378;2023-02-01T08:51:07;6.00;89.80
35381;DHT22;21486;51.916;8.378;2023-02-01T08:53:33;6.00;89.90
35381;DHT22;21486;51.916;8.378;2023-02-01T08:55:59;6.10;90.20
35381;DHT22;21486;51.916;8.378;2023-02-01T08:58:25;6.10;90.00
35381;DHT22;21486;51.916;8.378;2023-02-01T09:00:51;6.20;89.90
35381;DHT22;21486;51.916;8.378;2023-02-01T09:03:17;6.20;89.60
35381;DHT22;21486;51.916;8.378;2023-02-01T09:05:42;6.20;89.30
35381;DHT22;21486;51.916;8.378;2023-02-01T09:08:08;6.20;89.10
35381;DHT22;21486;51.916;8.378;2023-02-01T09:10:34;6.20;88.90
35381;DHT22;21486;51.916;8.378;2023-02-01T09:13:01;6.20;89.50
35381;DHT22;21486;51.916;8.378;2023-02-01T09:15:28;6.20;88.80
35381;DHT22;21486;51.916;8.378;2023-02-01T09:17:54;6.20;88.40
35381;DHT22;21486;51.916;8.378;2023-02-01T09:20:19;6.20;88.70
35381;DHT22;21486;51.916;8.378;2023-02-01T09:22:50;6.20;88.60
35381;DHT22;21486;51.916;8.378;2023-02-01T09:25:15;6.30;89.50
35381;DHT22;21486;51.916;8.378;2023-02-01T09:27:41;6.30;88.70
35381;DHT22;21486;51.916;8.378;2023-02-01T09:30:07;6.20;88.40
35381;DHT22;21486;51.916;8.378;2023-02-01T09:32:33;6.20;88.90
35381;DHT22;21486;51.916;8.378;2023-02-01T09:34:58;6.30;88.80
35381;DHT22;21486;51.916;8.378;2023-02-01T09:37:24;6.30;88.30
35381;DHT22;21486;51.916;8.378;2023-02-01T09:39:49;6.30;88.50
35381;DHT22;21486;51.916;8.378;2023-02-01T09:45:32;6.30;89.00
35381;DHT22;21486;51.916;8.378;2023-02-01T09:48:08;6.40;88.60
35381;DHT22;21486;51.916;8.378;2023-02-01T09:50:43;6.30;88.80
35381;DHT22;21486;51.916;8.378;2023-02-01T09:53:27;6.30;88.90
35381;DHT22;21486;51.916;8.378;2023-02-01T09:56:05;6.30;88.70
35381;DHT22;21486;51.916;8.378;2023-02-01T09:58:35;6.30;89.10
35381;DHT22;21486;51.916;8.378;2023-02-01T10:01:04;6.20;88.80
35381;DHT22;21486;51.916;8.378;2023-02-01T10:03:32;6.30;88.90
35381;DHT22;21486;51.916;8.378;2023-02-01T10:17:58;6.60;88.10
35381;DHT22;21486;51.916;8.378;2023-02-01T10:23:39;6.70;86.80
35381;DHT22;21486;51.916;8.378;2023-02-01T10:26:19;6.70;87.30
35381;DHT22;21486;51.916;8.378;2023-02-01T10:28:51;6.70;87.70
35381;DHT22;21486;51.916;8.378;2023-02-01T10:31:18;6.80;87.10
35381;DHT22;21486;51.916;8.378;2023-02-01T10:33:52;6.70;85.30
35381;DHT22;21486;51.916;8.378;2023-02-01T10:36:57;6.80;86.50
35381;DHT22;21486;51.916;8.378;2023-02-01T10:39:25;6.70;86.70
35381;DHT22;21486;51.916;8.378;2023-02-01T10:41:50;6.80;86.50
35381;DHT22;21486;51.916;8.378;2023-02-01T10:44:19;6.80;86.50
35381;DHT22;21486;51.916;8.378;2023-02-01T10:46:45;6.80;87.00
35381;DHT22;21486;51.916;8.378;2023-02-01T10:49:18;6.80;86.80
35381;DHT22;21486;51.916;8.378;2023-02-01T10:51:50;6.80;86.30
35381;DHT22;21486;51.916;8.378;2023-02-01T10:54:20;6.90;86.00
35381;DHT22;21486;51.916;8.378;2023-02-01T10:56:46;6.90;87.00
35381;DHT22;21486;51.916;8.378;2023-02-01T10:59:24;6.80;86.70
35381;DHT22;21486;51.916;8.378;2023-02-01T11:01:58;6.80;86.70
35381;DHT22;21486;51.916;8.378;2023-02-01T11:04:24;6.70;87.10
35381;DHT22;21486;51.916;8.378;2023-02-01T11:06:55;6.80;86.90
35381;DHT22;21486;51.916;8.378;2023-02-01T11:09:31;6.80;86.80
35381;DHT22;21486;51.916;8.378;2023-02-01T11:11:58;6.80;86.60
35381;DHT22;21486;51.916;8.378;2023-02-01T11:19:42;6.70;87.00
35381;DHT22;21486;51.916;8.378;2023-02-01T11:22:09;6.80;87.10
35381;DHT22;21486;51.916;8.378;2023-02-01T11:24:37;6.70;88.00
35381;DHT22;21486;51.916;8.378;2023-02-01T11:27:14;6.70;87.30
35381;DHT22;21486;51.916;8.378;2023-02-01T11:29:45;6.70;87.20
35381;DHT22;21486;51.916;8.378;2023-02-01T11:32:14;6.70;87.90
35381;DHT22;21486;51.916;8.378;2023-02-01T11:35:03;6.70;87.70
35381;DHT22;21486;51.916;8.378;2023-02-01T11:37:35;6.70;88.20
35381;DHT22;21486;51.916;8.378;2023-02-01T11:42:54;6.60;88.00
35381;DHT22;21486;51.916;8.378;2023-02-01T11:45:31;6.60;88.50
35381;DHT22;21486;51.916;8.378;2023-02-01T11:47:59;6.60;88.80
35381;DHT22;21486;51.916;8.378;2023-02-01T11:51:19;6.50;88.50
35381;DHT22;21486;51.916;8.378;2023-02-01T11:53:38;6.50;90.00
35381;DHT22;21486;51.916;8.378;2023-02-01T11:59:12;6.40;91.10
35381;DHT22;21486;51.916;8.378;2023-02-01T12:13:07;6.00;93.70
35381;DHT22;21486;51.916;8.378;2023-02-01T12:18:56;5.80;94.90
35381;DHT22;21486;51.916;8.378;2023-02-01T12:21:43;5.80;95.50
35381;DHT22;21486;51.916;8.378;2023-02-01T12:24:48;5.70;96.30
35381;DHT22;21486;51.916;8.378;2023-02-01T12:34:04;5.50;96.70
35381;DHT22;21486;51.916;8.378;2023-02-01T12:36:23;5.60;96.70
35381;DHT22;21486;51.916;8.378;2023-02-01T12:42:03;5.40;97.90
35381;DHT22;21486;51.916;8.378;2023-02-01T12:45:53;5.40;98.20
35381;DHT22;21486;51.916;8.378;2023-02-01T12:51:19;5.40;98.80
35381;DHT22;21486;51.916;8.378;2023-02-01T12:53:46;5.20;99.40
35381;DHT22;21486;51.916;8.378;2023-02-01T12:58:53;5.20;99.80
35381;DHT22;21486;51.916;8.378;2023-02-01T13:01:35;5.20;99.90
35381;DHT22;21486;51.916;8.378;2023-02-01T13:04:13;5.20;99.90
35381;DHT22;21486;51.916;8.378;2023-02-01T13:06:59;5.20;99.90
35381;DHT22;21486;51.916;8.378;2023-02-01T13:09:59;5.20;99.90
35381;DHT22;21486;51.916;8.378;2023-02-01T13:12:37;5.20;99.90
35381;DHT22;21486;51.916;8.378;2023-02-01T13:15:13;5.30;99.90
35381;DHT22;21486;51.916;8.378;2023-02-01T13:17:42;5.30;99.70
35381;DHT22;21486;51.916;8.378;2023-02-01T13:20:32;5.40;99.70
35381;DHT22;21486;51.916;8.378;2023-02-01T13:23:09;5.50;99.70
35381;DHT22;21486;51.916;8.378;2023-02-01T13:25:49;5.40;99.70
35381;DHT22;21486;51.916;8.378;2023-02-01T13:28:35;5.50;99.50
35381;DHT22;21486;51.916;8.378;2023-02-01T13:37:30;5.60;99.00
35381;DHT22;21486;51.916;8.378;2023-02-01T13:42:58;5.70;98.70
35381;DHT22;21486;51.916;8.378;2023-02-01T13:45:30;5.70;98.80
35381;DHT22;21486;51.916;8.378;2023-02-01T13:47:59;5.70;98.40
35381;DHT22;21486;51.916;8.378;2023-02-01T13:55:39;5.90;97.40
35381;DHT22;21486;51.916;8.378;2023-02-01T14:00:41;5.90;97.60
35381;DHT22;21486;51.916;8.378;2023-02-01T14:03:13;5.90;98.30
35381;DHT22;21486;51.916;8.378;2023-02-01T14:08:11;5.80;98.50
35381;DHT22;21486;51.916;8.378;2023-02-01T14:13:37;5.80;98.60
35381;DHT22;21486;51.916;8.378;2023-02-01T14:21:33;5.90;97.30
35381;DHT22;21486;51.916;8.378;2023-02-01T14:24:04;6.00;97.30
35381;DHT22;21486;51.916;8.378;2023-02-01T14:32:05;6.10;96.70
35381;DHT22;21486;51.916;8.378;2023-02-01T14:39:52;6.10;97.50
35381;DHT22;21486;51.916;8.378;2023-02-01T14:42:47;6.10;97.40
35381;DHT22;21486;51.916;8.378;2023-02-01T14:47:48;6.00;97.80
35381;DHT22;21486;51.916;8.378;2023-02-01T14:56:00;5.40;99.90
35381;DHT22;21486;51.916;8.378;2023-02-01T14:58:35;5.20;99.90
35381;DHT22;21486;51.916;8.378;2023-02-01T15:01:39;5.10;99.20
35381;DHT22;21486;51.916;8.378;2023-02-01T15:04:12;5.00;98.90
35381;DHT22;21486;51.916;8.378;2023-02-01T15:06:55;5.00;99.20
35381;DHT22;21486;51.916;8.378;2023-02-01T15:09:34;4.80;99.60
35381;DHT22;21486;51.916;8.378;2023-02-01T15:12:04;4.80;99.90
35381;DHT22;21486;51.916;8.378;2023-02-01T15:14:35;4.90;99.30
35381;DHT22;21486;51.916;8.378;2023-02-01T15:17:02;4.90;99.50
35381;DHT22;21486;51.916;8.378;2023-02-01T15:19:29;4.90;99.60
35381;DHT22;21486;51.916;8.378;2023-02-01T15:21:56;4.90;99.20
35381;DHT22;21486;51.916;8.378;2023-02-01T15:26:48;5.00;99.90
35381;DHT22;21486;51.916;8.378;2023-02-01T15:29:15;5.00;99.90
35381;DHT22;21486;51.916;8.378;2023-02-01T15:31:45;4.90;99.80
35381;DHT22;21486;51.916;8.378;2023-02-01T15:34:12;4.90;99.90
35381;DHT22;21486;51.916;8.378;2023-02-01T15:36:38;4.90;99.90
35381;DHT22;21486;51.916;8.378;2023-02-01T15:39:16;4.90;99.90
35381;DHT22;21486;51.916;8.378;2023-02-01T15:41:50;4.90;99.90
35381;DHT22;21486;51.916;8.378;2023-02-01T15:44:28;4.90;99.90
35381;DHT22;21486;51.916;8.378;2023-02-01T15:46:54;5.00;99.90
35381;DHT22;21486;51.916;8.378;2023-02-01T15:49:31;5.00;99.90
35381;DHT22;21486;51.916;8.378;2023-02-01T15:51:59;5.10;99.90
35381;DHT22;21486;51.916;8.378;2023-02-01T15:54:27;5.10;99.90
35381;DHT22;21486;51.916;8.378;2023-02-01T15:56:54;5.20;99.90
35381;DHT22;21486;51.916;8.378;2023-02-01T15:59:24;5.30;99.90
35381;DHT22;21486;51.916;8.378;2023-02-01T16:01:50;5.10;99.90
35381;DHT22;21486;51.916;8.378;2023-02-01T16:04:24;5.20;99.90
35381;DHT22;21486;51.916;8.378;2023-02-01T16:06:54;5.20;99.90
35381;DHT22;21486;51.916;8.378;2023-02-01T16:09:22;5.20;99.90
35381;DHT22;21486;51.916;8.378;2023-02-01T16:14:18;5.30;99.90
35381;DHT22;21486;51.916;8.378;2023-02-01T16:16:43;5.30;99.90
35381;DHT22;21486;51.916;8.378;2023-02-01T16:19:09;5.30;99.80
35381;DHT22;21486;51.916;8.378;2023-02-01T16:21:35;5.20;99.60
35381;DHT22;21486;51.916;8.378;2023-02-01T16:24:00;5.20;99.60
35381;DHT22;21486;51.916;8.378;2023-02-01T16:26:29;5.20;99.40
35381;DHT22;21486;51.916;8.378;2023-02-01T16:28:56;5.20;99.20
35381;DHT22;21486;51.916;8.378;2023-02-01T16:31:26;5.20;98.90
35381;DHT22;21486;51.916;8.378;2023-02-01T16:33:52;5.20;99.20
35381;DHT22;21486;51.916;8.378;2023-02-01T16:36:19;5.10;98.80
35381;DHT22;21486;51.916;8.378;2023-02-01T16:38:45;5.10;99.00
35381;DHT22;21486;51.916;8.378;2023-02-01T16:41:14;5.10;98.70
35381;DHT22;21486;51.916;8.378;2023-02-01T16:43:40;5.10;99.40
35381;DHT22;21486;51.916;8.378;2023-02-01T16:46:15;5.20;99.30
35381;DHT22;21486;51.916;8.378;2023-02-01T16:48:45;5.10;99.50
35381;DHT22;21486;51.916;8.378;2023-02-01T16:51:13;5.10;99.00
35381;DHT22;21486;51.916;8.378;2023-02-01T16:53:41;5.10;98.90
35381;DHT22;21486;51.916;8.378;2023-02-01T16:56:15;5.20;98.60
35381;DHT22;21486;51.916;8.378;2023-02-01T16:58:41;5.10;98.70
35381;DHT22;21486;51.916;8.378;2023-02-01T17:01:09;5.10;98.20
35381;DHT22;21486;51.916;8.378;2023-02-01T17:03:36;5.10;97.60
35381;DHT22;21486;51.916;8.378;2023-02-01T17:06:02;5.20;97.80
35381;DHT22;21486;51.916;8.378;2023-02-01T17:08:31;5.10;97.60
35381;DHT22;21486;51.916;8.378;2023-02-01T17:10:57;5.10;97.50
35381;DHT22;21486;51.916;8.378;2023-02-01T17:13:22;5.20;97.50
35381;DHT22;21486;51.916;8.378;2023-02-01T17:15:58;5.10;97.50
35381;DHT22;21486;51.916;8.378;2023-02-01T17:18:24;5.10;97.90
35381;DHT22;21486;51.916;8.378;2023-02-01T17:20:56;5.00;97.90
35381;DHT22;21486;51.916;8.378;2023-02-01T17:23:22;5.00;97.80
35381;DHT22;21486;51.916;8.378;2023-02-01T17:25:47;5.00;97.80
35381;DHT22;21486;51.916;8.378;2023-02-01T17:28:13;5.10;97.60
35381;DHT22;21486;51.916;8.378;2023-02-01T17:30:39;5.10;97.30
35381;DHT22;21486;51.916;8.378;2023-02-01T17:33:20;5.20;97.10
35381;DHT22;21486;51.916;8.378;2023-02-01T17:35:46;5.30;96.90
35381;DHT22;21486;51.916;8.378;2023-02-01T17:38:13;5.30;96.80
35381;DHT22;21486;51.916;8.378;2023-02-01T17:40:39;5.30;96.90
35381;DHT22;21486;51.916;8.378;2023-02-01T17:43:04;5.30;97.00
35381;DHT22;21486;51.916;8.378;2023-02-01T17:45:34;5.30;97.10
35381;DHT22;21486;51.916;8.378;2023-02-01T17:48:05;5.30;96.90
35381;DHT22;21486;51.916;8.378;2023-02-01T17:50:32;5.30;97.20
35381;DHT22;21486;51.916;8.378;2023-02-01T17:52:59;5.20;97.40
35381;DHT22;21486;51.916;8.378;2023-02-01T17:55:25;5.30;97.30
35381;DHT22;21486;51.916;8.378;2023-02-01T17:57:51;5.20;97.60
35381;DHT22;21486;51.916;8.378;2023-02-01T18:00:17;5.20;97.60
35381;DHT22;21486;51.916;8.378;2023-02-01T18:02:43;5.10;97.70
35381;DHT22;21486;51.916;8.378;2023-02-01T18:07:56;5.00;98.20
35381;DHT22;21486;51.916;8.378;2023-02-01T18:10:22;4.90;98.40
35381;DHT22;21486;51.916;8.378;2023-02-01T18:12:47;4.90;98.60
35381;DHT22;21486;51.916;8.378;2023-02-01T18:15:19;4.90;98.80
35381;DHT22;21486;51.916;8.378;2023-02-01T18:17:45;4.90;98.70
35381;DHT22;21486;51.916;8.378;2023-02-01T18:20:17;4.90;98.60
35381;DHT22;21486;51.916;8.378;2023-02-01T18:22:43;4.90;98.50